Time;durP1;ratioP1;P1;durP2;ratioP2;P2;SDS_P1;SDS_P2;PMS_P1;PMS_P2;Temp;Humidity;BMP_temperature;BMP_pressure;BME280_temperature;BME280_humidity;BME280_pressure;Samples;Min_cycle;Max_cycle;Signal;HPM_P1;HPM_P2
2022/01/25 00:26:23;;;;;;;2.67;2.40;;;1.90;99.90;;;;;;5085416;28;20194;-51
2022/01/25 00:29:04;;;;;;;2.93;1.70;;;1.90;99.90;;;;;;5066664;28;20277;-57
2022/01/25 00:31:33;;;;;;;3.77;2.73;;;1.90;99.90;;;;;;5069026;28;20193;-56
2022/01/25 00:33:59;;;;;;;3.70;2.53;;;1.90;99.90;;;;;;5067049;28;20190;-61
2022/01/25 00:36:27;;;;;;;2.93;2.33;;;1.90;99.90;;;;;;5067765;28;20222;-59
2022/01/25 00:38:55;;;;;;;2.03;1.93;;;1.90;99.90;;;;;;5068116;28;20226;-59
2022/01/25 00:41:22;;;;;;;2.73;1.63;;;1.90;99.90;;;;;;5066358;28;20197;-58
2022/01/25 00:43:48;;;;;;;2.80;2.00;;;1.90;99.90;;;;;;5068114;28;20206;-57
2022/01/25 00:46:16;;;;;;;2.97;1.93;;;1.80;99.90;;;;;;5065921;28;20182;-49
2022/01/25 00:48:46;;;;;;;4.23;2.47;;;1.80;99.90;;;;;;5068825;28;20189;-51
2022/01/25 00:53:58;;;;;;;5.97;2.47;;;1.60;99.90;;;;;;5084529;28;20205;-59
2022/01/25 00:56:29;;;;;;;2.87;2.67;;;1.60;99.90;;;;;;5068591;28;20265;-57
2022/01/25 00:58:55;;;;;;;2.80;1.80;;;1.40;99.90;;;;;;5066478;28;20185;-58
2022/01/25 01:01:21;;;;;;;3.70;2.33;;;1.40;99.90;;;;;;5069321;28;20181;-52
2022/01/25 01:03:47;;;;;;;2.13;1.93;;;1.30;99.90;;;;;;5067192;28;20213;-54
2022/01/25 01:06:14;;;;;;;2.07;1.87;;;1.20;99.90;;;;;;5069753;28;20250;-55
2022/01/25 01:08:40;;;;;;;2.53;2.27;;;1.20;99.90;;;;;;5068480;28;20207;-55
2022/01/25 01:11:11;;;;;;;4.60;2.67;;;1.10;99.90;;;;;;5068526;28;20263;-56
2022/01/25 01:32:49;;;;;;;2.47;2.20;;;0.80;99.90;;;;;;5086007;28;20197;-59
2022/01/25 01:38:08;;;;;;;3.43;2.17;;;0.70;99.90;;;;;;5084079;28;20266;-52
2022/01/25 01:43:30;;;;;;;3.80;2.87;;;0.70;99.90;;;;;;5083502;28;20186;-56
2022/01/25 01:48:34;;;;;;;2.23;2.00;;;0.60;99.90;;;;;;5084149;28;20272;-53
2022/01/25 01:51:08;;;;;;;3.10;2.47;;;0.60;99.90;;;;;;5065896;28;20200;-59
2022/01/25 01:53:35;;;;;;;3.97;1.53;;;0.60;99.90;;;;;;5068088;28;20197;-55
2022/01/25 01:56:05;;;;;;;2.50;1.57;;;0.50;99.90;;;;;;5065652;28;20257;-57
2022/01/25 01:58:33;;;;;;;3.83;2.70;;;0.50;99.90;;;;;;5067907;28;20193;-48
2022/01/25 02:00:59;;;;;;;8.13;2.83;;;0.50;99.90;;;;;;5067720;28;21283;-59
2022/01/25 02:03:25;;;;;;;3.47;1.70;;;0.50;99.90;;;;;;5065592;28;20221;-57
2022/01/25 02:05:51;;;;;;;2.33;1.57;;;0.50;99.90;;;;;;5067444;28;20213;-52
2022/01/25 02:08:17;;;;;;;7.47;3.00;;;0.50;99.90;;;;;;5065760;28;20178;-57
2022/01/25 02:10:43;;;;;;;2.37;1.73;;;0.50;99.90;;;;;;5067665;28;20232;-54
2022/01/25 02:13:11;;;;;;;2.13;1.97;;;0.30;99.90;;;;;;5064930;28;20186;-50
2022/01/25 02:15:39;;;;;;;2.27;2.17;;;0.30;99.90;;;;;;5067141;28;20186;-55
2022/01/25 02:23:40;;;;;;;2.43;1.87;;;0.20;99.90;;;;;;5083819;28;20196;-59
2022/01/25 02:26:08;;;;;;;2.27;2.07;;;0.20;99.90;;;;;;5065482;28;20242;-60
2022/01/25 02:28:37;;;;;;;4.33;2.70;;;0.10;99.90;;;;;;5067809;28;20221;-57
2022/01/25 02:31:05;;;;;;;3.33;1.97;;;0.10;99.90;;;;;;5065617;28;20186;-54
2022/01/25 02:33:31;;;;;;;2.17;1.97;;;0.20;99.90;;;;;;5066135;28;20178;-58
2022/01/25 02:35:59;;;;;;;2.27;1.77;;;0.20;99.90;;;;;;5066874;28;20189;-53
2022/01/25 02:38:28;;;;;;;3.00;2.17;;;0.10;99.90;;;;;;5064895;28;20246;-50
2022/01/25 02:40:55;;;;;;;1.80;1.70;;;0.10;99.90;;;;;;5066603;28;20216;-48
2022/01/25 02:43:22;;;;;;;2.30;2.10;;;0.10;99.90;;;;;;5064622;28;20260;-53
2022/01/25 02:49:12;;;;;;;7.20;2.47;;;0.10;99.90;;;;;;5082958;28;20284;-57
2022/01/25 02:51:44;;;;;;;3.67;2.57;;;0.00;99.90;;;;;;5023139;28;20209;-59
2022/01/25 02:54:11;;;;;;;3.60;3.20;;;0.00;99.90;;;;;;5009369;28;20203;-59
2022/01/25 02:56:40;;;;;;;5.27;2.30;;;-0.10;99.90;;;;;;5007240;28;20183;-52
2022/01/25 02:59:06;;;;;;;2.67;2.33;;;-0.10;99.90;;;;;;5009094;28;20195;-59
2022/01/25 03:01:34;;;;;;;2.20;2.03;;;-0.10;99.90;;;;;;5008589;28;20230;-51
2022/01/25 03:04:00;;;;;;;2.67;2.17;;;-0.10;99.90;;;;;;5006562;28;20215;-51
2022/01/25 03:06:44;;;;;;;2.50;2.07;;;-0.20;99.90;;;;;;5027112;28;20278;-58
2022/01/25 03:09:10;;;;;;;4.60;1.73;;;-0.20;99.90;;;;;;5006535;28;20332;-51
2022/01/25 03:11:36;;;;;;;2.23;1.57;;;-0.10;99.90;;;;;;5009229;28;20326;-55
2022/01/25 03:14:09;;;;;;;3.70;3.33;;;-0.20;99.90;;;;;;5007009;28;20210;-58
2022/01/25 03:22:05;;;;;;;2.47;2.13;;;-0.10;99.90;;;;;;5022593;28;20179;-54
2022/01/25 03:24:31;;;;;;;2.43;1.20;;;-0.10;99.90;;;;;;5008274;28;20242;-48
2022/01/25 03:26:57;;;;;;;1.33;1.33;;;-0.10;99.90;;;;;;5028505;28;20236;-58
2022/01/25 03:29:23;;;;;;;6.50;2.43;;;-0.20;99.90;;;;;;5066130;28;20259;-51
2022/01/25 03:31:49;;;;;;;4.50;1.93;;;-0.20;99.90;;;;;;5064913;28;20185;-53
2022/01/25 03:34:15;;;;;;;2.73;2.53;;;-0.20;99.90;;;;;;5064874;28;20189;-58
2022/01/25 03:36:42;;;;;;;2.50;1.13;;;-0.20;99.90;;;;;;5065149;28;20319;-51
2022/01/25 03:39:08;;;;;;;3.20;1.90;;;-0.20;99.90;;;;;;5063524;28;20228;-56
2022/01/25 03:41:35;;;;;;;1.93;1.83;;;-0.20;99.90;;;;;;5066000;28;20197;-53
2022/01/25 03:44:01;;;;;;;3.37;2.47;;;-0.20;99.90;;;;;;5063811;28;20209;-56
2022/01/25 03:52:13;;;;;;;3.00;2.20;;;-0.30;99.90;;;;;;5022224;28;20266;-58
2022/01/25 03:54:39;;;;;;;2.27;1.47;;;-0.30;99.90;;;;;;5024937;28;20191;-56
2022/01/25 03:57:05;;;;;;;6.17;2.23;;;-0.40;99.90;;;;;;5022805;28;20286;-50
2022/01/25 03:59:31;;;;;;;3.27;1.73;;;-0.40;99.90;;;;;;5025142;28;20289;-56
2022/01/25 04:01:57;;;;;;;1.77;1.67;;;-0.40;99.90;;;;;;5023676;28;20195;-59
2022/01/25 04:04:26;;;;;;;1.67;1.57;;;-0.40;99.90;;;;;;5023362;28;20217;-50
2022/01/25 04:06:53;;;;;;;2.33;1.57;;;-0.50;99.90;;;;;;5024376;28;20203;-56
2022/01/25 04:09:21;;;;;;;1.20;1.20;;;-0.50;99.90;;;;;;5022705;28;20221;-57
2022/01/25 04:12:07;;;;;;;1.37;1.37;;;-0.50;99.90;;;;;;5041415;28;20186;-54
2022/01/25 04:14:33;;;;;;;1.50;1.40;;;-0.50;99.90;;;;;;5022653;28;20288;-60
2022/01/25 04:17:06;;;;;;;1.90;1.80;;;-0.50;99.90;;;;;;5024537;28;20198;-54
2022/01/25 04:19:43;;;;;;;2.00;1.90;;;-0.60;99.90;;;;;;5024495;28;20192;-58
2022/01/25 04:27:31;;;;;;;4.67;2.17;;;-0.70;99.90;;;;;;5080791;28;20182;-55
2022/01/25 04:30:15;;;;;;;2.73;2.37;;;-0.70;99.90;;;;;;5081579;28;20271;-53
2022/01/25 04:32:45;;;;;;;2.23;2.13;;;-0.80;99.90;;;;;;5065447;28;20181;-58
2022/01/25 04:35:43;;;;;;;3.37;2.33;;;-0.80;99.90;;;;;;5063275;28;20190;-57
2022/01/25 04:49:22;;;;;;;6.30;2.93;;;-0.60;99.90;;;;;;5080666;28;20213;-58
2022/01/25 04:57:49;;;;;;;4.87;2.53;;;-0.80;99.90;;;;;;5083494;28;20190;-54
2022/01/25 05:00:14;;;;;;;7.07;3.03;;;-0.80;99.90;;;;;;5083532;28;20202;-48
2022/01/25 05:10:16;;;;;;;2.13;1.97;;;-0.60;99.90;;;;;;5080902;28;20185;-52
2022/01/25 05:12:46;;;;;;;1.60;1.27;;;-0.60;99.90;;;;;;5068148;28;20279;-47
2022/01/25 05:15:37;;;;;;;2.47;1.67;;;-0.50;99.90;;;;;;5064354;28;20185;-48
2022/01/25 05:23:13;;;;;;;4.83;2.93;;;-0.20;99.90;;;;;;5080288;28;20178;-50
2022/01/25 05:25:39;;;;;;;3.93;3.30;;;-0.30;99.90;;;;;;5068192;28;20217;-54
2022/01/25 05:28:05;;;;;;;4.20;2.07;;;-0.30;99.90;;;;;;5066443;28;20194;-58
2022/01/25 05:30:31;;;;;;;3.37;2.43;;;-0.40;99.90;;;;;;5068236;28;20186;-52
2022/01/25 05:32:56;;;;;;;3.00;2.00;;;-0.50;99.90;;;;;;5067671;28;20178;-56
2022/01/25 05:35:22;;;;;;;4.47;3.53;;;-0.50;99.90;;;;;;5067541;28;20170;-55
2022/01/25 05:37:49;;;;;;;2.90;1.70;;;-0.20;99.90;;;;;;5068890;28;20198;-53
2022/01/25 05:40:18;;;;;;;2.57;2.23;;;-0.20;99.90;;;;;;5063529;28;20232;-54
2022/01/25 05:43:51;;;;;;;2.33;2.13;;;-0.40;99.90;;;;;;5067961;28;20229;-50
2022/01/25 05:46:39;;;;;;;4.07;2.63;;;-0.50;99.90;;;;;;5082411;28;20218;-55
2022/01/25 05:48:28;;;;;;;3.00;1.43;;;-0.70;99.90;;;;;;5069872;28;20271;-55
2022/01/25 05:50:56;;;;;;;2.17;2.00;;;-0.70;99.90;;;;;;5068265;28;20178;-48
2022/01/25 05:53:22;;;;;;;4.10;2.33;;;-0.80;99.90;;;;;;5066021;28;20174;-48
2022/01/25 05:55:48;;;;;;;2.83;2.57;;;-0.80;99.90;;;;;;5068330;28;20181;-51
2022/01/25 05:58:14;;;;;;;2.73;1.80;;;-0.90;99.90;;;;;;5066372;28;20174;-50
2022/01/25 06:00:40;;;;;;;6.70;2.77;;;-0.90;99.90;;;;;;5068933;28;20170;-57
2022/01/25 06:03:06;;;;;;;2.37;2.17;;;-1.00;99.90;;;;;;5061308;28;20178;-51
2022/01/25 06:05:34;;;;;;;5.40;2.37;;;-1.00;99.90;;;;;;5052463;28;20269;-48
2022/01/25 06:08:00;;;;;;;3.47;2.13;;;-0.90;99.90;;;;;;5055764;28;20182;-48
2022/01/25 06:10:26;;;;;;;5.60;2.37;;;-0.90;99.90;;;;;;5058048;28;20181;-50
2022/01/25 06:12:52;;;;;;;5.27;2.40;;;-0.90;99.90;;;;;;5061979;28;20181;-49
2022/01/25 06:15:19;;;;;;;6.30;2.07;;;-0.90;99.90;;;;;;5060057;28;20289;-55
2022/01/25 06:17:46;;;;;;;4.67;2.73;;;-0.90;99.90;;;;;;5063630;28;20268;-55
2022/01/25 06:20:12;;;;;;;2.83;2.63;;;-0.90;99.90;;;;;;5060495;28;20173;-56
2022/01/25 06:22:38;;;;;;;3.57;2.83;;;-0.80;99.90;;;;;;5094633;28;20181;-54
2022/01/25 06:25:05;;;;;;;10.00;3.43;;;-0.70;99.90;;;;;;5063058;28;20232;-54
2022/01/25 06:27:31;;;;;;;4.73;1.93;;;-0.70;99.90;;;;;;5051887;28;20190;-54
2022/01/25 06:29:57;;;;;;;3.60;2.77;;;-0.60;99.90;;;;;;5060496;28;20216;-50
2022/01/25 06:32:23;;;;;;;10.33;2.53;;;-0.70;99.90;;;;;;5061383;28;20185;-55
2022/01/25 06:34:48;;;;;;;3.13;2.87;;;-0.60;99.90;;;;;;5062086;28;20182;-52
2022/01/25 06:37:15;;;;;;;4.70;2.17;;;-0.60;99.90;;;;;;5058709;28;20182;-55
2022/01/25 06:39:41;;;;;;;4.07;3.30;;;-0.60;99.90;;;;;;5055735;28;20263;-52
2022/01/25 06:42:08;;;;;;;4.27;3.77;;;-0.50;99.90;;;;;;5060011;28;20181;-51
2022/01/25 06:44:37;;;;;;;7.13;3.37;;;-0.50;99.90;;;;;;5061043;28;20719;-54
2022/01/25 06:47:03;;;;;;;4.17;2.87;;;-0.60;99.90;;;;;;5050469;28;20246;-50
2022/01/25 06:49:29;;;;;;;8.73;3.67;;;-0.50;99.90;;;;;;5058183;28;20186;-52
2022/01/25 06:51:55;;;;;;;7.87;3.03;;;-0.50;99.90;;;;;;5081030;28;20204;-47
2022/01/25 06:54:21;;;;;;;2.93;2.33;;;-0.50;99.90;;;;;;5058405;28;20183;-52
2022/01/25 06:56:47;;;;;;;6.17;2.83;;;-0.40;99.90;;;;;;5063443;28;20174;-52
2022/01/25 06:59:13;;;;;;;7.10;3.47;;;-0.30;99.90;;;;;;5061971;28;20186;-46
2022/01/25 07:01:39;;;;;;;4.47;2.50;;;-0.40;99.90;;;;;;5059520;28;20690;-53
2022/01/25 07:04:05;;;;;;;6.40;3.97;;;-0.30;99.90;;;;;;5060971;28;20247;-50
2022/01/25 07:06:31;;;;;;;8.63;4.30;;;-0.20;99.90;;;;;;5060423;28;20178;-52
2022/01/25 07:08:57;;;;;;;10.00;4.00;;;-0.20;99.90;;;;;;5061105;28;20198;-51
2022/01/25 07:11:23;;;;;;;5.40;3.37;;;-0.20;99.90;;;;;;5055008;28;20239;-46
2022/01/25 07:13:49;;;;;;;8.27;4.10;;;-0.20;99.90;;;;;;5062220;28;20174;-54
2022/01/25 07:16:15;;;;;;;7.07;3.17;;;-0.10;99.90;;;;;;5057546;28;20675;-48
2022/01/25 07:18:41;;;;;;;5.10;4.17;;;-0.10;99.90;;;;;;5058647;28;20182;-46
2022/01/25 07:21:07;;;;;;;10.03;5.50;;;0.00;99.90;;;;;;5060376;28;20242;-58
2022/01/25 07:23:33;;;;;;;8.37;4.13;;;0.00;99.90;;;;;;5058151;28;20226;-54
2022/01/25 07:25:59;;;;;;;7.83;2.97;;;0.10;99.90;;;;;;5063520;28;20316;-52
2022/01/25 07:28:25;;;;;;;10.00;2.43;;;0.10;99.90;;;;;;5061502;28;20193;-57
2022/01/25 07:30:51;;;;;;;5.97;3.70;;;0.10;99.90;;;;;;5056323;28;20209;-59
2022/01/25 07:33:16;;;;;;;8.03;3.60;;;0.00;99.90;;;;;;5058139;28;20182;-54
2022/01/25 07:35:42;;;;;;;5.03;3.70;;;0.10;99.90;;;;;;5061901;28;20175;-51
2022/01/25 07:38:09;;;;;;;5.50;2.67;;;0.10;99.90;;;;;;5059052;28;20174;-57
2022/01/25 07:40:36;;;;;;;3.90;2.93;;;0.00;99.90;;;;;;5057709;28;20173;-52
2022/01/25 07:43:03;;;;;;;3.80;3.50;;;0.10;99.90;;;;;;5064241;28;20185;-52
2022/01/25 07:45:34;;;;;;;3.37;3.07;;;0.10;99.90;;;;;;5054577;28;20216;-54
2022/01/25 07:48:04;;;;;;;5.73;2.87;;;0.20;99.90;;;;;;5064329;28;20198;-55
2022/01/25 07:50:30;;;;;;;6.17;3.73;;;0.20;99.90;;;;;;5050643;28;20174;-56
2022/01/25 07:52:56;;;;;;;10.23;3.23;;;0.20;99.90;;;;;;5063287;28;20190;-58
2022/01/25 07:55:22;;;;;;;3.87;2.40;;;0.30;99.90;;;;;;5059399;28;20177;-57
2022/01/25 07:57:47;;;;;;;6.07;3.60;;;0.40;99.90;;;;;;5060058;28;20178;-58
2022/01/25 08:00:13;;;;;;;3.33;2.67;;;0.40;99.90;;;;;;5075363;28;20186;-49
2022/01/25 08:02:44;;;;;;;5.17;2.93;;;0.40;99.90;;;;;;5063559;28;20170;-50
2022/01/25 08:05:16;;;;;;;5.10;3.33;;;0.40;99.90;;;;;;5078119;28;20213;-55
2022/01/25 08:07:42;;;;;;;7.67;2.93;;;0.40;99.90;;;;;;5060185;28;20209;-52
2022/01/25 08:10:08;;;;;;;8.93;4.10;;;0.50;99.90;;;;;;5053085;28;20280;-51
2022/01/25 08:12:35;;;;;;;4.90;4.40;;;0.40;99.90;;;;;;5063707;28;20181;-52
2022/01/25 08:15:03;;;;;;;3.97;2.87;;;0.40;99.90;;;;;;5062120;28;20185;-58
2022/01/25 08:17:29;;;;;;;4.40;3.40;;;0.60;99.90;;;;;;5059195;28;20270;-49
2022/01/25 08:19:55;;;;;;;2.67;2.13;;;0.60;99.90;;;;;;5056856;28;20253;-54
2022/01/25 08:25:43;;;;;;;20.30;4.40;;;0.60;99.90;;;;;;5064142;28;20229;-52
2022/01/25 08:28:09;;;;;;;7.83;4.80;;;0.70;99.90;;;;;;5054718;28;20187;-51
2022/01/25 08:30:35;;;;;;;6.23;3.00;;;0.60;99.90;;;;;;5052925;28;20188;-53
2022/01/25 08:33:01;;;;;;;6.37;3.47;;;0.60;99.90;;;;;;5066078;28;20213;-47
2022/01/25 08:35:45;;;;;;;4.97;3.20;;;0.80;99.90;;;;;;5079657;28;20190;-55
2022/01/25 08:38:11;;;;;;;9.70;5.47;;;0.90;99.90;;;;;;5048910;28;20195;-45
2022/01/25 08:40:37;;;;;;;7.27;3.87;;;1.00;99.90;;;;;;5061194;28;20182;-52
2022/01/25 08:43:03;;;;;;;5.27;3.17;;;1.00;99.90;;;;;;5062499;28;20210;-59
2022/01/25 08:45:29;;;;;;;3.93;3.60;;;1.10;99.90;;;;;;5053956;28;20222;-53
2022/01/25 08:47:55;;;;;;;4.40;3.33;;;1.30;99.90;;;;;;5058631;28;20233;-56
2022/01/25 08:50:21;;;;;;;9.40;4.80;;;1.30;99.90;;;;;;5052601;28;20186;-53
2022/01/25 08:52:47;;;;;;;4.97;3.93;;;1.30;99.90;;;;;;5064742;28;20194;-49
2022/01/25 08:55:13;;;;;;;5.03;3.97;;;1.30;99.90;;;;;;5058242;28;20182;-49
2022/01/25 08:57:39;;;;;;;6.50;3.20;;;1.20;99.90;;;;;;5048797;28;20225;-54
2022/01/25 09:00:10;;;;;;;7.50;3.87;;;1.10;99.90;;;;;;5051244;28;20236;-59
2022/01/25 09:02:36;;;;;;;4.83;3.73;;;1.30;99.90;;;;;;5067197;28;20235;-51
2022/01/25 09:05:03;;;;;;;23.67;9.30;;;1.30;99.90;;;;;;5057653;28;20217;-61
2022/01/25 09:07:29;;;;;;;10.53;4.67;;;1.40;99.90;;;;;;5053831;28;20170;-57
2022/01/25 09:09:55;;;;;;;6.43;3.73;;;1.40;99.90;;;;;;5056789;28;20171;-53
2022/01/25 09:12:22;;;;;;;9.23;4.23;;;1.50;99.90;;;;;;5047841;28;20175;-51
2022/01/25 09:14:49;;;;;;;4.37;3.67;;;1.50;99.90;;;;;;5073903;28;20216;-54
2022/01/25 09:17:16;;;;;;;6.30;3.50;;;1.60;99.90;;;;;;5050383;28;20280;-55
2022/01/25 09:19:41;;;;;;;6.60;4.83;;;1.50;99.90;;;;;;5063996;28;20197;-58
2022/01/25 09:22:08;;;;;;;4.70;3.57;;;1.50;99.90;;;;;;5065077;28;20181;-57
2022/01/25 09:24:37;;;;;;;5.10;3.67;;;1.40;99.90;;;;;;5066700;28;20240;-52
2022/01/25 09:27:05;;;;;;;7.03;4.50;;;1.50;99.90;;;;;;5066773;28;20197;-60
2022/01/25 09:29:31;;;;;;;6.73;5.27;;;1.70;99.90;;;;;;5065803;28;20178;-53
2022/01/25 09:31:56;;;;;;;4.93;3.60;;;1.70;99.90;;;;;;5067279;28;20190;-49
2022/01/25 09:34:23;;;;;;;5.80;5.10;;;1.80;99.90;;;;;;5065184;28;20190;-58
2022/01/25 09:36:50;;;;;;;7.63;4.27;;;1.80;99.90;;;;;;5068319;28;20255;-56
2022/01/25 09:39:16;;;;;;;10.70;5.87;;;1.80;99.90;;;;;;5065747;28;20271;-57
2022/01/25 09:41:43;;;;;;;10.33;4.77;;;1.90;99.90;;;;;;5066615;28;20190;-52
2022/01/25 09:44:08;;;;;;;8.63;3.43;;;2.00;99.90;;;;;;5066298;28;20206;-59
2022/01/25 09:46:34;;;;;;;5.37;4.13;;;2.10;99.90;;;;;;5065611;28;20314;-48
2022/01/25 09:49:00;;;;;;;6.80;4.47;;;2.10;99.90;;;;;;5066747;28;20207;-52
2022/01/25 09:51:28;;;;;;;6.60;3.80;;;2.00;99.90;;;;;;5065252;28;20286;-55
2022/01/25 09:53:54;;;;;;;4.77;2.97;;;1.90;99.90;;;;;;5066736;28;20178;-52
2022/01/25 09:56:20;;;;;;;7.03;4.07;;;1.90;99.90;;;;;;5064671;28;20178;-57
2022/01/25 09:58:46;;;;;;;6.50;3.90;;;1.90;99.90;;;;;;5067489;28;20243;-59
2022/01/25 10:01:12;;;;;;;8.03;5.17;;;1.90;99.90;;;;;;5065124;28;20174;-59
2022/01/25 10:03:39;;;;;;;8.67;5.10;;;2.00;99.90;;;;;;5065972;28;20182;-54
2022/01/25 10:06:15;;;;;;;8.83;4.80;;;2.00;99.90;;;;;;5066232;28;20298;-57
2022/01/25 10:08:41;;;;;;;9.77;6.07;;;1.90;99.90;;;;;;5064749;28;20261;-58
2022/01/25 10:11:11;;;;;;;7.77;5.27;;;1.70;99.90;;;;;;5066907;28;20193;-54
2022/01/25 10:13:50;;;;;;;15.30;5.17;;;1.70;99.90;;;;;;5065159;28;20186;-54
2022/01/25 10:16:28;;;;;;;8.87;4.17;;;1.60;99.90;;;;;;5082747;28;20246;-57
2022/01/25 10:19:00;;;;;;;13.57;4.70;;;1.60;99.90;;;;;;5065811;28;20189;-60
2022/01/25 10:21:33;;;;;;;6.20;4.27;;;1.70;99.90;;;;;;5079248;28;20178;-56
2022/01/25 10:24:17;;;;;;;8.67;5.50;;;1.60;99.90;;;;;;5066065;28;20224;-58
2022/01/25 10:26:51;;;;;;;6.10;3.57;;;1.40;99.90;;;;;;5079777;28;20174;-51
2022/01/25 10:29:21;;;;;;;13.70;3.90;;;1.50;99.90;;;;;;5066812;28;20178;-57
2022/01/25 10:31:52;;;;;;;16.07;5.47;;;1.70;99.90;;;;;;5080261;28;20188;-59
2022/01/25 10:34:43;;;;;;;7.90;3.87;;;1.70;99.90;;;;;;5065483;28;20208;-56
2022/01/25 10:37:18;;;;;;;5.70;3.30;;;1.60;99.90;;;;;;5082156;28;20209;-55
2022/01/25 10:39:48;;;;;;;5.90;3.67;;;1.60;99.90;;;;;;5078417;28;20209;-53
2022/01/25 10:42:18;;;;;;;6.83;4.13;;;1.60;99.90;;;;;;5065762;28;20185;-56
2022/01/25 10:44:49;;;;;;;6.87;5.00;;;1.60;99.90;;;;;;5081993;28;20213;-57
2022/01/25 10:47:36;;;;;;;7.97;4.53;;;1.50;99.90;;;;;;5064368;28;20188;-54
2022/01/25 10:50:12;;;;;;;9.03;5.27;;;1.60;99.90;;;;;;5062932;28;20209;-53
2022/01/25 10:52:38;;;;;;;3.93;2.40;;;1.40;99.90;;;;;;5064485;28;20272;-59
2022/01/25 10:55:05;;;;;;;7.83;4.03;;;1.20;99.90;;;;;;5066819;28;20344;-59
2022/01/25 10:57:31;;;;;;;6.83;4.57;;;1.30;99.90;;;;;;5063683;28;20190;-59
2022/01/25 11:00:00;;;;;;;8.93;4.20;;;1.30;99.90;;;;;;5064903;28;20213;-55
2022/01/25 11:02:26;;;;;;;14.63;4.20;;;1.20;99.90;;;;;;5064946;28;20273;-55
2022/01/25 11:05:07;;;;;;;7.97;3.90;;;1.40;99.90;;;;;;5062856;28;20274;-46
2022/01/25 11:07:44;;;;;;;18.40;4.73;;;1.50;99.90;;;;;;5080605;28;20189;-47
2022/01/25 11:10:20;;;;;;;7.73;4.50;;;1.50;99.90;;;;;;5063947;28;20189;-52
2022/01/25 11:13:00;;;;;;;6.50;4.67;;;1.60;99.90;;;;;;5065580;28;20268;-49
2022/01/25 11:15:26;;;;;;;8.63;3.50;;;1.50;99.90;;;;;;5065057;28;20276;-57
2022/01/25 11:17:52;;;;;;;8.33;4.87;;;1.50;99.90;;;;;;5063302;28;20269;-58
2022/01/25 11:20:18;;;;;;;12.70;4.00;;;1.40;99.90;;;;;;5064668;28;20182;-51
2022/01/25 11:22:45;;;;;;;12.47;6.70;;;1.40;99.90;;;;;;5063700;28;20224;-47
2022/01/25 11:25:17;;;;;;;9.07;4.23;;;1.40;99.90;;;;;;5065613;28;20214;-58
2022/01/25 11:27:44;;;;;;;13.53;5.17;;;1.40;99.90;;;;;;5063269;28;20193;-60
2022/01/25 11:30:17;;;;;;;6.47;3.30;;;1.60;99.90;;;;;;5064974;28;20269;-52
2022/01/25 11:32:46;;;;;;;7.03;3.77;;;1.50;99.90;;;;;;5064992;28;20186;-58
2022/01/25 11:35:15;;;;;;;9.13;3.63;;;1.50;99.90;;;;;;5063133;28;20178;-57
2022/01/25 11:37:46;;;;;;;12.33;5.90;;;1.50;99.90;;;;;;5064964;28;20178;-55
2022/01/25 11:40:39;;;;;;;8.77;5.23;;;1.70;99.90;;;;;;5079183;28;20231;-58
2022/01/25 11:43:09;;;;;;;5.03;3.83;;;1.80;99.90;;;;;;5080996;28;20269;-62
2022/01/25 11:45:39;;;;;;;8.30;4.07;;;1.80;99.90;;;;;;5064804;28;20213;-62
2022/01/25 11:48:06;;;;;;;8.43;4.60;;;1.70;99.90;;;;;;5070731;28;20181;-57
2022/01/25 11:50:35;;;;;;;6.03;3.30;;;1.70;99.90;;;;;;5072892;28;20205;-54
2022/01/25 11:53:07;;;;;;;7.47;3.87;;;1.50;99.90;;;;;;5071540;28;20223;-59
2022/01/25 11:55:35;;;;;;;5.77;3.23;;;1.60;99.90;;;;;;5073670;28;20185;-59
2022/01/25 11:58:08;;;;;;;6.80;3.83;;;1.60;99.90;;;;;;5071349;28;20186;-61
2022/01/25 12:00:47;;;;;;;9.27;3.83;;;1.30;99.90;;;;;;5072541;28;20189;-59
2022/01/25 12:03:33;;;;;;;8.03;4.23;;;1.20;99.90;;;;;;5072860;28;20189;-59
2022/01/25 12:06:06;;;;;;;5.87;3.67;;;1.10;99.90;;;;;;5066926;28;20228;-52
2022/01/25 12:09:41;;;;;;;7.10;3.10;;;1.10;99.90;;;;;;5073452;28;20290;-57
2022/01/25 12:11:49;;;;;;;7.53;4.20;;;1.00;99.90;;;;;;5081477;28;20257;-59
2022/01/25 12:14:33;;;;;;;4.27;2.17;;;1.10;99.90;;;;;;5070416;28;20193;-58
2022/01/25 12:17:10;;;;;;;6.23;3.10;;;1.20;99.90;;;;;;5073183;28;20224;-58
2022/01/25 12:19:52;;;;;;;7.47;4.27;;;1.10;99.90;;;;;;5071052;28;20182;-63
2022/01/25 12:22:48;;;;;;;7.33;3.83;;;1.10;99.90;;;;;;5072843;28;20193;-57
2022/01/25 12:25:19;;;;;;;10.50;4.33;;;1.20;99.90;;;;;;5089129;28;20225;-55
2022/01/25 12:28:08;;;;;;;3.83;3.37;;;1.20;99.90;;;;;;5071126;28;20182;-58
2022/01/25 12:30:46;;;;;;;2.67;2.40;;;1.20;99.90;;;;;;5072407;28;20192;-56
2022/01/25 12:33:29;;;;;;;8.13;3.43;;;1.30;99.90;;;;;;5071851;28;20202;-61
2022/01/25 12:36:03;;;;;;;9.80;3.93;;;1.10;99.90;;;;;;5071107;28;20182;-59
2022/01/25 12:38:37;;;;;;;4.63;3.30;;;1.30;99.90;;;;;;5072540;28;20225;-54
2022/01/25 12:41:10;;;;;;;5.27;3.13;;;0.90;99.90;;;;;;5070912;28;20189;-59
2022/01/25 12:43:44;;;;;;;9.60;3.17;;;1.00;99.90;;;;;;5072754;28;20197;-55
2022/01/25 12:46:16;;;;;;;10.07;4.53;;;1.10;99.90;;;;;;5071936;28;20233;-59
2022/01/25 12:48:54;;;;;;;7.13;3.20;;;1.10;99.90;;;;;;5071135;28;20177;-54
2022/01/25 12:51:33;;;;;;;8.73;5.53;;;1.00;99.90;;;;;;5072758;28;20204;-61
2022/01/25 12:54:03;;;;;;;7.07;2.83;;;1.00;99.90;;;;;;5070370;28;20190;-61
2022/01/25 12:56:34;;;;;;;6.43;4.07;;;1.30;99.90;;;;;;5073453;28;20178;-60
2022/01/25 12:59:04;;;;;;;2.93;2.57;;;1.30;99.90;;;;;;5068405;28;20185;-59
2022/01/25 13:01:30;;;;;;;3.60;2.80;;;1.40;99.90;;;;;;5067726;28;20213;-59
2022/01/25 13:04:01;;;;;;;8.37;3.83;;;1.60;99.90;;;;;;5069396;28;20174;-49
2022/01/25 13:06:33;;;;;;;4.37;3.43;;;1.40;99.90;;;;;;5067010;28;20250;-55
2022/01/25 13:16:54;;;;;;;2.67;2.20;;;1.10;99.90;;;;;;5085868;28;20200;-51
2022/01/25 13:19:36;;;;;;;6.37;2.23;;;1.10;99.90;;;;;;5067507;28;20213;-60
2022/01/25 13:22:11;;;;;;;8.93;2.83;;;1.20;99.90;;;;;;5069682;28;20189;-54
2022/01/25 13:25:32;;;;;;;1.97;1.80;;;1.20;99.90;;;;;;5067412;28;20293;-58
2022/01/25 13:27:45;;;;;;;3.23;2.33;;;1.40;99.90;;;;;;5078258;28;20246;-61
2022/01/25 13:32:56;;;;;;;2.97;2.60;;;1.30;99.90;;;;;;5083511;28;20284;-54
2022/01/25 13:35:30;;;;;;;4.13;3.67;;;1.50;99.90;;;;;;5068801;28;20265;-61
2022/01/25 13:38:12;;;;;;;6.13;2.60;;;1.10;99.90;;;;;;5067824;28;20198;-58
2022/01/25 13:45:58;;;;;;;3.70;2.30;;;0.70;99.90;;;;;;5083299;28;20224;-61
2022/01/25 13:48:27;;;;;;;8.90;3.33;;;0.80;99.90;;;;;;5068968;28;20185;-56
2022/01/25 13:50:56;;;;;;;4.70;2.40;;;0.90;99.90;;;;;;5067238;28;20196;-57
2022/01/25 13:53:22;;;;;;;3.80;2.97;;;1.00;99.90;;;;;;5067876;28;20266;-49
2022/01/25 13:55:49;;;;;;;2.47;2.27;;;1.10;99.90;;;;;;5068258;28;20217;-60
2022/01/25 13:58:23;;;;;;;4.67;2.20;;;1.10;99.90;;;;;;5066266;28;20182;-59
2022/01/25 14:00:49;;;;;;;4.07;2.27;;;1.30;99.90;;;;;;5068770;28;20190;-63
2022/01/25 14:03:15;;;;;;;3.40;1.93;;;1.20;99.90;;;;;;5066329;28;20181;-60
2022/01/25 14:05:41;;;;;;;4.57;3.60;;;1.20;99.90;;;;;;5068366;28;20252;-55
2022/01/25 14:08:07;;;;;;;4.03;3.57;;;1.10;99.90;;;;;;5067201;28;20198;-56
2022/01/25 14:10:33;;;;;;;6.20;2.73;;;1.00;99.90;;;;;;5066217;28;20190;-50
2022/01/25 14:21:55;;;;;;;6.90;2.10;;;1.00;99.90;;;;;;5084456;28;20269;-60
2022/01/25 14:24:32;;;;;;;3.87;2.37;;;1.00;99.90;;;;;;5065639;28;20210;-55
2022/01/25 14:27:16;;;;;;;5.77;3.33;;;0.80;99.90;;;;;;5067641;28;20190;-51
2022/01/25 14:29:41;;;;;;;3.07;2.73;;;1.00;99.90;;;;;;5066641;28;20188;-54
2022/01/25 14:32:07;;;;;;;12.43;4.77;;;1.00;99.90;;;;;;5067161;28;20182;-50
2022/01/25 14:34:33;;;;;;;7.80;3.50;;;0.90;99.90;;;;;;5066736;28;20209;-59
2022/01/25 14:36:58;;;;;;;2.57;2.37;;;0.80;99.90;;;;;;5064370;28;20189;-53
2022/01/25 14:39:27;;;;;;;5.90;2.97;;;0.80;99.90;;;;;;5065561;28;20217;-58
2022/01/25 14:41:53;;;;;;;3.40;2.53;;;0.80;99.90;;;;;;5063838;28;20184;-60
2022/01/25 14:44:23;;;;;;;5.40;3.93;;;1.00;99.90;;;;;;5065648;28;20206;-56
2022/01/25 14:46:52;;;;;;;4.50;2.53;;;1.10;99.90;;;;;;5063920;28;20182;-63
2022/01/25 14:49:26;;;;;;;3.70;2.47;;;1.10;99.90;;;;;;5058811;28;20185;-56
2022/01/25 14:52:06;;;;;;;3.10;2.57;;;1.10;99.90;;;;;;5095594;28;20185;-57
2022/01/25 14:54:35;;;;;;;8.23;4.17;;;1.20;99.90;;;;;;5061377;28;20231;-54
2022/01/25 14:57:06;;;;;;;5.87;3.47;;;1.20;99.90;;;;;;5079146;28;20228;-55
2022/01/25 14:59:46;;;;;;;5.20;2.97;;;1.30;99.90;;;;;;5079409;28;20186;-57
2022/01/25 15:02:15;;;;;;;6.33;3.07;;;1.20;99.90;;;;;;5063529;28;20177;-58
2022/01/25 15:04:54;;;;;;;5.90;2.73;;;1.30;99.90;;;;;;5064088;28;20217;-59
2022/01/25 15:07:27;;;;;;;3.73;3.37;;;1.30;99.90;;;;;;5096085;28;20193;-46
2022/01/25 15:09:58;;;;;;;8.57;3.27;;;1.10;99.90;;;;;;5096793;28;20193;-59
2022/01/25 15:12:30;;;;;;;4.70;3.43;;;1.10;99.90;;;;;;5063531;28;20185;-58
2022/01/25 15:15:05;;;;;;;6.23;3.67;;;1.00;99.90;;;;;;5066180;28;20190;-56
2022/01/25 15:17:31;;;;;;;8.80;3.90;;;0.80;99.90;;;;;;5064836;28;20189;-60
2022/01/25 15:19:56;;;;;;;4.50;2.67;;;0.80;99.90;;;;;;5065133;28;20184;-48
2022/01/25 15:22:24;;;;;;;2.27;2.13;;;0.80;99.90;;;;;;5065225;28;20228;-60
2022/01/25 15:24:50;;;;;;;4.20;2.47;;;1.00;99.90;;;;;;5062858;28;20218;-51